N4VV KROA-KROA
Flight info
| Callsign | N4VV |
|---|---|
| Flight time | N/A |
| Altitude | VFR/045 |
| Route | |
| Aircraft | DA42/L-VGD/C |
Departure
| Time | 2026-04-20 23:33 |
|---|---|
| Airport | Roanoke–Blacksburg Regional Airport (KROA) |
Arrival
| Time | N/A |
|---|---|
| Airport | Roanoke–Blacksburg Regional Airport (KROA) |
| Time | Latitude | Longitude | Altitude | Speed | Heading |
|---|---|---|---|---|---|
| 2026-04-20 23:26 | 37.33113 | -79.96751 | 1187 ft | 0 kts | 140° |
| 2026-04-20 23:27 | 37.33107 | -79.96748 | 1187 ft | 3 kts | 177° |
| 2026-04-20 23:28 | 37.33097 | -79.96761 | 1187 ft | 1 kts | 275° |
| 2026-04-20 23:28 | 37.33097 | -79.96763 | 1187 ft | 0 kts | 280° |
| 2026-04-20 23:28 | 37.33101 | -79.96772 | 1187 ft | 8 kts | 322° |
| 2026-04-20 23:29 | 37.33174 | -79.96771 | 1187 ft | 9 kts | 27° |
| 2026-04-20 23:29 | 37.33266 | -79.96657 | 1188 ft | 18 kts | 40° |
| 2026-04-20 23:29 | 37.33323 | -79.96633 | 1188 ft | 0 kts | 340° |
| 2026-04-20 23:30 | 37.33324 | -79.96634 | 1188 ft | 4 kts | 334° |
| 2026-04-20 23:30 | 37.33359 | -79.96716 | 1187 ft | 12 kts | 260° |
| 2026-04-20 23:30 | 37.33306 | -79.96813 | 1187 ft | 12 kts | 229° |
| 2026-04-20 23:30 | 37.33259 | -79.96877 | 1188 ft | 14 kts | 229° |
| 2026-04-20 23:31 | 37.33186 | -79.96979 | 1187 ft | 10 kts | 225° |
| 2026-04-20 23:31 | 37.33136 | -79.97054 | 1186 ft | 38 kts | 238° |
| 2026-04-20 23:31 | 37.32845 | -79.97486 | 1181 ft | 85 kts | 231° |
| 2026-04-20 23:31 | 37.32686 | -79.97770 | 1181 ft | 0 kts | 205° |
| 2026-04-20 23:32 | 37.32550 | -79.97923 | 1180 ft | 59 kts | 227° |
| 2026-04-20 23:32 | 37.32189 | -79.98439 | 1298 ft | 84 kts | 238° |
| 2026-04-20 23:32 | 37.31805 | -79.99060 | 1485 ft | 99 kts | 243° |
| 2026-04-20 23:33 | 37.31681 | -79.99934 | 1673 ft | 109 kts | 275° |
| 2026-04-20 23:33 | 37.31583 | -80.00875 | 1903 ft | 115 kts | 261° |
| 2026-04-20 23:33 | 37.31409 | -80.01852 | 2143 ft | 113 kts | 262° |
| 2026-04-20 23:33 | 37.31141 | -80.02828 | 2295 ft | 126 kts | 254° |
| 2026-04-20 23:34 | 37.30750 | -80.03916 | 2251 ft | 143 kts | 246° |
| 2026-04-20 23:34 | 37.30226 | -80.04947 | 2465 ft | 138 kts | 241° |
| 2026-04-20 23:34 | 37.29655 | -80.05949 | 2519 ft | 145 kts | 249° |
| 2026-04-20 23:34 | 37.29196 | -80.06966 | 2620 ft | 127 kts | 242° |
| 2026-04-20 23:35 | 37.28735 | -80.07912 | 2375 ft | 132 kts | 250° |
| 2026-04-20 23:35 | 37.28666 | -80.10110 | 1818 ft | 129 kts | 292° |
| 2026-04-20 23:35 | 37.28605 | -80.11152 | 1748 ft | 121 kts | 241° |
| 2026-04-20 23:36 | 37.27851 | -80.11559 | 1697 ft | 127 kts | 175° |
| 2026-04-20 23:36 | 37.27211 | -80.10822 | 1721 ft | 141 kts | 97° |
| 2026-04-20 23:36 | 37.27600 | -80.09713 | 1710 ft | 147 kts | 30° |
| 2026-04-20 23:36 | 37.28504 | -80.09701 | 1782 ft | 135 kts | 334° |
| 2026-04-20 23:37 | 37.29099 | -80.10546 | 1676 ft | 139 kts | 283° |
| 2026-04-20 23:37 | 37.29023 | -80.11776 | 1531 ft | 144 kts | 249° |
| 2026-04-20 23:37 | 37.28159 | -80.12110 | 1875 ft | 142 kts | 153° |
| 2026-04-20 23:37 | 37.27584 | -80.11131 | 1950 ft | 153 kts | 101° |
| 2026-04-20 23:38 | 37.27594 | -80.09718 | 1863 ft | 164 kts | 81° |
| 2026-04-20 23:38 | 37.27709 | -80.08327 | 1798 ft | 155 kts | 78° |
| 2026-04-20 23:38 | 37.27838 | -80.07048 | 1841 ft | 141 kts | 79° |
| 2026-04-20 23:38 | 37.27982 | -80.05834 | 1786 ft | 141 kts | 77° |
| 2026-04-20 23:39 | 37.28120 | -80.04617 | 1733 ft | 141 kts | 80° |
| 2026-04-20 23:39 | 37.28303 | -80.03477 | 1889 ft | 128 kts | 69° |
| 2026-04-20 23:39 | 37.28694 | -80.02432 | 1872 ft | 141 kts | 57° |
| 2026-04-20 23:39 | 37.29224 | -80.01371 | 2018 ft | 151 kts | 51° |
| 2026-04-20 23:40 | 37.29889 | -80.00256 | 1966 ft | 168 kts | 46° |
| 2026-04-20 23:40 | 37.30658 | -79.99094 | 1971 ft | 175 kts | 44° |
| 2026-04-20 23:40 | 37.31398 | -79.98012 | 2080 ft | 155 kts | 44° |
| 2026-04-20 23:40 | 37.32139 | -79.96966 | 2081 ft | 168 kts | 42° |
| 2026-04-20 23:41 | 37.32916 | -79.95824 | 1917 ft | 172 kts | 47° |
| 2026-04-20 23:41 | 37.33576 | -79.94644 | 1734 ft | 146 kts | 55° |
| 2026-04-20 23:41 | 37.34281 | -79.94205 | 1613 ft | 107 kts | 326° |
| 2026-04-20 23:41 | 37.34430 | -79.95051 | 1453 ft | 107 kts | 256° |
| 2026-04-20 23:42 | 37.34060 | -79.95703 | 1383 ft | 82 kts | 234° |
| 2026-04-20 23:42 | 37.33657 | -79.96281 | 1311 ft | 96 kts | 238° |
| 2026-04-20 23:42 | 37.33237 | -79.96894 | 1203 ft | 84 kts | 239° |
| 2026-04-20 23:42 | 37.32915 | -79.97380 | 1182 ft | 66 kts | 230° |
| 2026-04-20 23:43 | 37.32557 | -79.97899 | 1240 ft | 84 kts | 236° |
| 2026-04-20 23:43 | 37.32137 | -79.98510 | 1377 ft | 99 kts | 234° |
| 2026-04-20 23:43 | 37.31681 | -79.99247 | 1611 ft | 113 kts | 230° |
| 2026-04-20 23:43 | 37.30878 | -79.99314 | 1957 ft | 136 kts | 154° |
| 2026-04-20 23:44 | 37.30091 | -79.98498 | 2024 ft | 160 kts | 129° |
| 2026-04-20 23:44 | 37.30005 | -79.97156 | 2106 ft | 161 kts | 60° |
| 2026-04-20 23:44 | 37.30563 | -79.95968 | 2223 ft | 157 kts | 48° |
| 2026-04-20 23:44 | 37.31231 | -79.94863 | 2220 ft | 161 kts | 47° |
| 2026-04-20 23:45 | 37.32019 | -79.93833 | 2083 ft | 164 kts | 30° |
| 2026-04-20 23:45 | 37.33072 | -79.93556 | 1896 ft | 152 kts | 342° |
| 2026-04-20 23:45 | 37.33869 | -79.94175 | 1712 ft | 120 kts | 309° |
| 2026-04-20 23:45 | 37.34229 | -79.94926 | 1615 ft | 89 kts | 280° |
| 2026-04-20 23:46 | 37.34088 | -79.95614 | 1447 ft | 76 kts | 238° |
| 2026-04-20 23:46 | 37.33753 | -79.96142 | 1352 ft | 87 kts | 233° |
| 2026-04-20 23:46 | 37.33338 | -79.96745 | 1243 ft | 89 kts | 240° |
| 2026-04-20 23:46 | 37.33014 | -79.97236 | 1184 ft | 56 kts | 233° |
| 2026-04-20 23:47 | 37.32698 | -79.97689 | 1219 ft | 85 kts | 232° |
| 2026-04-20 23:47 | 37.32263 | -79.98287 | 1444 ft | 96 kts | 237° |
| 2026-04-20 23:47 | 37.31796 | -79.98894 | 1771 ft | 98 kts | 228° |
| 2026-04-20 23:47 | 37.31276 | -79.99515 | 2129 ft | 108 kts | 226° |
| 2026-04-20 23:48 | 37.30431 | -79.99604 | 2220 ft | 143 kts | 158° |
| 2026-04-20 23:48 | 37.29658 | -79.98786 | 2242 ft | 150 kts | 114° |
| 2026-04-20 23:48 | 37.29810 | -79.97543 | 2133 ft | 152 kts | 55° |
| 2026-04-20 23:48 | 37.30369 | -79.96388 | 2090 ft | 158 kts | 51° |
| 2026-04-20 23:49 | 37.31027 | -79.95275 | 2096 ft | 156 kts | 46° |
| 2026-04-20 23:49 | 37.31718 | -79.94280 | 2201 ft | 149 kts | 40° |
| 2026-04-20 23:49 | 37.32480 | -79.93404 | 2152 ft | 150 kts | 28° |
| 2026-04-20 23:49 | 37.33452 | -79.93280 | 1991 ft | 140 kts | 332° |
| 2026-04-20 23:50 | 37.34141 | -79.93938 | 1842 ft | 113 kts | 309° |
| 2026-04-20 23:50 | 37.34374 | -79.94726 | 1725 ft | 86 kts | 266° |
| 2026-04-20 23:50 | 37.34180 | -79.95367 | 1524 ft | 76 kts | 242° |
| 2026-04-20 23:50 | 37.33876 | -79.95908 | 1374 ft | 79 kts | 233° |
| 2026-04-20 23:51 | 37.33524 | -79.96451 | 1291 ft | 84 kts | 240° |
| 2026-04-20 23:51 | 37.33163 | -79.97009 | 1197 ft | 75 kts | 236° |
| 2026-04-20 23:51 | 37.32868 | -79.97450 | 1181 ft | 60 kts | 230° |
| 2026-04-20 23:51 | 37.32495 | -79.97975 | 1267 ft | 92 kts | 231° |
| 2026-04-20 23:52 | 37.32042 | -79.98584 | 1584 ft | 94 kts | 230° |
| 2026-04-20 23:52 | 37.31568 | -79.99166 | 1896 ft | 99 kts | 228° |
| 2026-04-20 23:52 | 37.31208 | -79.99541 | 2169 ft | 101 kts | 226° |
| 2026-04-20 23:52 | 37.30564 | -79.99937 | 2499 ft | 113 kts | 182° |
| 2026-04-20 23:53 | 37.29949 | -79.99296 | 2787 ft | 122 kts | 116° |